Time;durP1;ratioP1;P1;durP2;ratioP2;P2;SDS_P1;SDS_P2;PMS_P1;PMS_P2;Temp;Humidity;BMP_temperature;BMP_pressure;BME280_temperature;BME280_humidity;BME280_pressure;Samples;Min_cycle;Max_cycle;Signal;HPM_P1;HPM_P2
2023/04/06 00:00:39;;;;;;;11.40;6.60;;;2.30;1.00;;;;;;5051176;28;20507;-72
2023/04/06 00:03:04;;;;;;;10.63;6.40;;;2.30;1.00;;;;;;5051294;28;20746;-71
2023/04/06 00:05:30;;;;;;;11.03;6.87;;;2.30;1.00;;;;;;5051142;28;20297;-72
2023/04/06 00:07:57;;;;;;;10.90;6.13;;;2.20;1.00;;;;;;5051037;28;20196;-72
2023/04/06 00:10:23;;;;;;;9.23;6.90;;;2.10;1.00;;;;;;5051121;28;20205;-72
2023/04/06 00:12:49;;;;;;;12.53;7.00;;;2.00;1.00;;;;;;5050226;28;20828;-71
2023/04/06 00:15:14;;;;;;;16.60;6.87;;;1.90;1.00;;;;;;5058083;28;20205;-71
2023/04/06 00:17:40;;;;;;;15.73;6.23;;;1.80;1.00;;;;;;5050717;28;20177;-72
2023/04/06 00:20:06;;;;;;;8.87;6.67;;;1.80;1.00;;;;;;5059112;28;20192;-72
2023/04/06 00:22:32;;;;;;;11.07;6.83;;;1.70;1.00;;;;;;5059126;28;20199;-71
2023/04/06 00:24:58;;;;;;;12.73;6.20;;;1.60;1.00;;;;;;5043127;28;20443;-71
2023/04/06 00:27:23;;;;;;;15.20;6.80;;;1.60;1.00;;;;;;5050860;28;20272;-72
2023/04/06 00:29:49;;;;;;;8.90;6.50;;;1.60;1.00;;;;;;5060600;28;20204;-72
2023/04/06 00:32:14;;;;;;;10.17;7.10;;;1.60;1.00;;;;;;5056719;28;20185;-72
2023/04/06 00:34:40;;;;;;;9.20;6.47;;;1.70;1.00;;;;;;5051161;28;20355;-71
2023/04/06 00:37:05;;;;;;;8.07;6.03;;;4.60;1.00;;;;;;5062492;28;20184;-72
2023/04/06 00:39:31;;;;;;;13.83;6.33;;;2.00;1.00;;;;;;5062621;28;20216;-72
2023/04/06 00:41:57;;;;;;;9.27;6.97;;;2.10;1.00;;;;;;5058318;28;20192;-72
2023/04/06 00:44:23;;;;;;;8.53;5.53;;;2.30;1.00;;;;;;5057010;28;20188;-72
2023/04/06 00:46:49;;;;;;;7.40;5.87;;;2.30;1.00;;;;;;5068040;28;20192;-72
2023/04/06 00:49:14;;;;;;;11.67;6.33;;;2.30;1.00;;;;;;5050393;28;20509;-71
2023/04/06 00:51:40;;;;;;;9.87;6.53;;;2.30;1.00;;;;;;5050753;28;20689;-72
2023/04/06 00:54:05;;;;;;;10.90;6.43;;;2.40;1.00;;;;;;5058059;28;20836;-71
2023/04/06 00:56:31;;;;;;;8.47;6.53;;;2.50;1.00;;;;;;5050223;28;20627;-72
2023/04/06 00:58:57;;;;;;;8.87;6.00;;;2.50;1.00;;;;;;5049847;28;20185;-73
2023/04/06 01:01:23;;;;;;;9.17;6.40;;;2.50;1.00;;;;;;5050135;28;20177;-72
2023/04/06 01:03:50;;;;;;;8.40;6.17;;;2.50;1.00;;;;;;5048450;28;20188;-72
2023/04/06 01:06:15;;;;;;;9.47;6.30;;;2.50;1.00;;;;;;5050033;28;20542;-72
2023/04/06 01:08:41;;;;;;;8.27;6.30;;;2.40;1.00;;;;;;5058251;28;20519;-73
2023/04/06 01:11:07;;;;;;;9.50;5.97;;;2.40;1.00;;;;;;5046444;28;20190;-73
2023/04/06 01:13:32;;;;;;;7.90;6.53;;;2.40;1.00;;;;;;5054386;28;20212;-72
2023/04/06 01:15:58;;;;;;;9.80;6.47;;;2.40;1.00;;;;;;5052666;28;20346;-72
2023/04/06 01:18:28;;;;;;;8.90;6.40;;;2.40;1.00;;;;;;5054988;28;20189;-73
2023/04/06 01:20:54;;;;;;;11.60;5.93;;;2.40;1.00;;;;;;5049701;28;20223;-72
2023/04/06 01:23:19;;;;;;;12.40;7.40;;;2.40;1.00;;;;;;5050165;28;20468;-72
2023/04/06 01:25:45;;;;;;;8.73;6.13;;;2.30;1.00;;;;;;5049474;28;20788;-73
2023/04/06 01:28:10;;;;;;;10.40;7.20;;;2.20;1.00;;;;;;5049558;28;20192;-72
2023/04/06 01:30:36;;;;;;;10.40;6.60;;;2.20;1.00;;;;;;5049529;28;20204;-73
2023/04/06 01:33:02;;;;;;;8.23;6.10;;;2.20;1.00;;;;;;5038550;28;20242;-73
2023/04/06 01:35:28;;;;;;;8.60;6.30;;;2.20;1.00;;;;;;5052403;28;20689;-74
2023/04/06 01:37:53;;;;;;;9.00;6.53;;;2.20;1.00;;;;;;5050469;28;20189;-74
2023/04/06 01:40:19;;;;;;;11.10;6.77;;;2.10;1.00;;;;;;5049549;28;20896;-74
2023/04/06 01:42:45;;;;;;;9.87;6.87;;;2.10;1.00;;;;;;5049782;28;20192;-74
2023/04/06 01:45:10;;;;;;;8.83;6.70;;;2.00;1.00;;;;;;5069270;28;20208;-74
2023/04/06 01:47:36;;;;;;;11.23;6.77;;;2.00;1.00;;;;;;5061271;28;20283;-74
2023/04/06 01:50:05;;;;;;;10.20;6.93;;;2.00;1.00;;;;;;5021252;28;20245;-74
2023/04/06 01:52:32;;;;;;;10.07;6.47;;;2.00;1.00;;;;;;5044968;28;20865;-74
2023/04/06 01:54:57;;;;;;;9.53;6.50;;;1.90;1.00;;;;;;5048804;28;20485;-74
2023/04/06 01:57:23;;;;;;;10.13;6.40;;;1.90;1.00;;;;;;5049177;28;20493;-74
2023/04/06 01:59:49;;;;;;;9.57;6.73;;;1.80;1.00;;;;;;5048790;28;20264;-73
2023/04/06 02:02:14;;;;;;;8.37;6.43;;;1.80;1.00;;;;;;5049123;28;20188;-74
2023/04/06 02:04:40;;;;;;;11.10;6.40;;;1.80;1.00;;;;;;5048905;28;20278;-73
2023/04/06 02:07:05;;;;;;;9.20;6.67;;;1.80;1.00;;;;;;5050475;28;20181;-74
2023/04/06 02:09:31;;;;;;;11.60;6.00;;;1.80;1.00;;;;;;5048819;28;20201;-74
2023/04/06 02:11:56;;;;;;;10.07;6.70;;;1.70;1.00;;;;;;5056300;28;20181;-74
2023/04/06 02:14:25;;;;;;;7.93;6.30;;;1.60;1.00;;;;;;5048714;28;20177;-74
2023/04/06 02:16:51;;;;;;;9.30;6.80;;;1.60;1.00;;;;;;5056923;28;20180;-74
2023/04/06 02:19:16;;;;;;;11.80;6.10;;;1.60;1.00;;;;;;5048988;28;20427;-74
2023/04/06 02:21:42;;;;;;;9.30;6.47;;;1.50;1.00;;;;;;5048542;28;20180;-74
2023/04/06 02:24:08;;;;;;;8.90;6.87;;;1.50;1.00;;;;;;5049018;28;20196;-74
2023/04/06 02:26:33;;;;;;;10.10;6.37;;;1.40;1.00;;;;;;5048678;28;20584;-74
2023/04/06 02:28:59;;;;;;;12.03;6.97;;;1.40;1.00;;;;;;5048471;28;20355;-74
2023/04/06 02:31:24;;;;;;;11.13;6.60;;;1.40;1.00;;;;;;5048656;28;20173;-74
2023/04/06 02:33:50;;;;;;;9.87;6.87;;;1.40;1.00;;;;;;5048995;28;20177;-74
2023/04/06 02:36:16;;;;;;;10.90;7.33;;;1.30;1.00;;;;;;5048431;28;20201;-74
2023/04/06 02:38:41;;;;;;;11.27;6.90;;;1.20;1.00;;;;;;5048377;28;20204;-74
2023/04/06 02:41:07;;;;;;;11.43;7.00;;;1.30;1.00;;;;;;5048414;28;20185;-74
2023/04/06 02:43:33;;;;;;;10.50;6.37;;;1.30;1.00;;;;;;5055845;28;20655;-74
2023/04/06 02:45:58;;;;;;;11.60;7.30;;;1.30;1.00;;;;;;5065697;28;20195;-74
2023/04/06 02:48:24;;;;;;;9.43;6.57;;;1.20;1.00;;;;;;5048528;28;20212;-74
2023/04/06 02:50:50;;;;;;;11.33;7.17;;;1.20;1.00;;;;;;5048120;28;20201;-73
2023/04/06 02:53:15;;;;;;;10.03;6.57;;;1.20;1.00;;;;;;5048845;28;20178;-74
2023/04/06 02:55:41;;;;;;;11.17;7.17;;;1.20;1.00;;;;;;5048238;28;20707;-74
2023/04/06 02:58:06;;;;;;;9.73;7.00;;;0.90;1.00;;;;;;5048428;28;20622;-74
2023/04/06 03:00:32;;;;;;;9.77;6.57;;;1.30;1.00;;;;;;5048482;28;20189;-74
2023/04/06 03:02:57;;;;;;;11.23;6.60;;;1.30;1.00;;;;;;5048131;28;20264;-74
2023/04/06 03:05:23;;;;;;;8.80;6.80;;;1.30;1.00;;;;;;5048427;28;20726;-75
2023/04/06 03:07:49;;;;;;;13.33;6.40;;;1.20;1.00;;;;;;5046524;28;20185;-74
2023/04/06 03:10:14;;;;;;;8.60;6.73;;;1.20;1.00;;;;;;5048053;28;20311;-74
2023/04/06 03:12:41;;;;;;;9.60;6.80;;;1.20;1.00;;;;;;5048112;28;20174;-75
2023/04/06 03:15:07;;;;;;;10.60;7.00;;;1.20;1.00;;;;;;5059373;28;20666;-74
2023/04/06 03:17:33;;;;;;;10.33;6.80;;;1.20;1.00;;;;;;5053120;28;20515;-74
2023/04/06 03:19:59;;;;;;;10.23;6.47;;;1.20;1.00;;;;;;5046955;28;20563;-74
2023/04/06 03:22:24;;;;;;;9.43;6.90;;;1.20;1.00;;;;;;5048266;28;20181;-74
2023/04/06 03:24:50;;;;;;;9.10;6.97;;;1.20;1.00;;;;;;5047781;28;20622;-75
2023/04/06 03:27:15;;;;;;;10.00;6.80;;;1.20;1.00;;;;;;5050466;28;20331;-74
2023/04/06 03:29:41;;;;;;;8.83;6.50;;;1.20;1.00;;;;;;5051856;28;20202;-74
2023/04/06 03:32:06;;;;;;;11.10;7.93;;;1.10;1.00;;;;;;5051588;28;20260;-74
2023/04/06 03:34:32;;;;;;;8.97;6.60;;;1.20;1.00;;;;;;5051823;28;20176;-74
2023/04/06 03:36:57;;;;;;;17.47;6.50;;;1.20;1.00;;;;;;5046069;28;20188;-74
2023/04/06 03:39:23;;;;;;;7.87;6.60;;;1.20;1.00;;;;;;5051911;28;20181;-74
2023/04/06 03:41:49;;;;;;;16.20;7.03;;;1.30;1.00;;;;;;5051353;28;20181;-74
2023/04/06 03:44:14;;;;;;;12.70;6.47;;;1.30;1.00;;;;;;5065482;28;20192;-74
2023/04/06 03:46:40;;;;;;;9.57;7.30;;;1.30;1.00;;;;;;5063883;28;20263;-74
2023/04/06 03:49:05;;;;;;;9.50;6.97;;;1.30;1.00;;;;;;5051327;28;20285;-74
2023/04/06 03:51:31;;;;;;;11.00;7.00;;;1.30;1.00;;;;;;5051431;28;20188;-74
2023/04/06 03:53:57;;;;;;;9.17;6.90;;;1.30;1.00;;;;;;5052861;28;20537;-74
2023/04/06 03:56:22;;;;;;;11.30;7.10;;;1.30;1.00;;;;;;5057935;28;20200;-74
2023/04/06 03:58:51;;;;;;;7.90;6.33;;;1.30;1.00;;;;;;5051202;28;20182;-74
2023/04/06 04:01:19;;;;;;;13.53;6.70;;;1.30;1.00;;;;;;5051249;28;20177;-74
2023/04/06 04:03:45;;;;;;;10.70;6.63;;;1.20;1.00;;;;;;5051581;28;20428;-73
2023/04/06 04:06:10;;;;;;;11.90;7.10;;;1.20;1.00;;;;;;5044490;28;20494;-74
2023/04/06 04:08:36;;;;;;;13.77;7.13;;;1.20;1.00;;;;;;5051283;28;20223;-74
2023/04/06 04:11:02;;;;;;;10.50;6.60;;;1.20;1.00;;;;;;5049543;28;20652;-74
2023/04/06 04:13:27;;;;;;;9.97;6.40;;;1.20;1.00;;;;;;5056936;28;20177;-74
2023/04/06 04:15:53;;;;;;;10.30;6.70;;;1.10;1.00;;;;;;5069721;28;20542;-74
2023/04/06 04:18:19;;;;;;;8.97;6.47;;;1.10;1.00;;;;;;5051090;28;20177;-74
2023/04/06 04:20:44;;;;;;;10.10;7.03;;;1.10;1.00;;;;;;5051115;28;20679;-74
2023/04/06 04:23:10;;;;;;;9.53;6.50;;;1.00;1.00;;;;;;5050401;28;20238;-74
2023/04/06 04:25:36;;;;;;;8.90;6.40;;;1.00;1.00;;;;;;5057680;28;20204;-74
2023/04/06 04:28:02;;;;;;;10.17;6.70;;;1.00;1.00;;;;;;5052130;28;20189;-74
2023/04/06 04:30:27;;;;;;;8.73;6.80;;;1.00;1.00;;;;;;5050960;28;20699;-74
2023/04/06 04:32:53;;;;;;;8.43;6.20;;;0.90;1.00;;;;;;5050462;28;20428;-74
2023/04/06 04:35:18;;;;;;;12.40;6.87;;;0.80;1.00;;;;;;5050811;28;20295;-74
2023/04/06 04:37:44;;;;;;;10.80;5.90;;;0.80;1.00;;;;;;5049356;28;20173;-74
2023/04/06 04:40:10;;;;;;;10.40;6.50;;;0.80;1.00;;;;;;5058622;28;20539;-74
2023/04/06 04:42:35;;;;;;;10.60;7.17;;;0.80;1.00;;;;;;5050544;28;20621;-74
2023/04/06 04:45:01;;;;;;;9.60;6.40;;;0.80;1.00;;;;;;5058828;28;20546;-74
2023/04/06 04:47:27;;;;;;;10.30;7.20;;;0.80;1.00;;;;;;5056902;28;20185;-74
2023/04/06 04:49:52;;;;;;;10.07;6.30;;;0.80;1.00;;;;;;5050081;28;20200;-74
2023/04/06 04:52:18;;;;;;;9.70;6.97;;;0.80;1.00;;;;;;5050128;28;20181;-74
2023/04/06 04:54:43;;;;;;;9.60;7.00;;;0.90;1.00;;;;;;5050353;28;20193;-74
2023/04/06 04:57:09;;;;;;;13.30;6.20;;;0.80;1.00;;;;;;5050287;28;20189;-74
2023/04/06 04:59:35;;;;;;;10.80;7.00;;;0.90;1.00;;;;;;5050246;28;20174;-74
2023/04/06 05:02:00;;;;;;;8.37;6.47;;;0.90;1.00;;;;;;5050418;28;20188;-75
2023/04/06 05:04:26;;;;;;;10.70;6.73;;;1.00;1.00;;;;;;5050529;28;20181;-74
2023/04/06 05:07:06;;;;;;;10.67;7.27;;;1.00;1.00;;;;;;5049553;28;20615;-73
2023/04/06 05:09:32;;;;;;;9.63;6.23;;;1.00;1.00;;;;;;5048809;28;20205;-74
2023/04/06 05:11:59;;;;;;;9.93;6.00;;;1.10;1.00;;;;;;5050687;28;20946;-74
2023/04/06 05:14:25;;;;;;;10.13;6.90;;;1.20;1.00;;;;;;5068166;28;20187;-75
2023/04/06 05:16:51;;;;;;;10.10;7.80;;;1.20;1.00;;;;;;5061134;28;20459;-73
2023/04/06 05:19:16;;;;;;;13.90;7.43;;;1.20;1.00;;;;;;5049789;28;20466;-74
2023/04/06 05:21:42;;;;;;;8.90;6.93;;;1.30;1.00;;;;;;5049732;28;20231;-74
2023/04/06 05:24:08;;;;;;;8.27;6.33;;;1.30;1.00;;;;;;5052169;28;20280;-74
2023/04/06 05:26:34;;;;;;;9.67;7.30;;;1.30;1.00;;;;;;5057482;28;20251;-74
2023/04/06 05:28:59;;;;;;;12.03;7.13;;;1.30;1.00;;;;;;5049365;28;21037;-74
2023/04/06 05:31:25;;;;;;;12.27;7.60;;;1.40;1.00;;;;;;5049534;28;20436;-74
2023/04/06 05:33:51;;;;;;;11.90;7.90;;;1.40;1.00;;;;;;5049658;28;20211;-74
2023/04/06 05:36:16;;;;;;;8.80;7.20;;;1.50;1.00;;;;;;5049314;28;20237;-74
2023/04/06 05:38:42;;;;;;;10.60;7.00;;;1.50;1.00;;;;;;5049606;28;20532;-74
2023/04/06 05:41:07;;;;;;;11.90;8.10;;;1.60;1.00;;;;;;5044839;28;20181;-74
2023/04/06 05:43:33;;;;;;;11.60;7.80;;;1.60;1.00;;;;;;5055225;28;20176;-74
2023/04/06 05:45:59;;;;;;;8.23;7.13;;;1.70;1.00;;;;;;5059721;28;20201;-74
2023/04/06 05:48:24;;;;;;;11.23;7.33;;;1.80;1.00;;;;;;5049105;28;20185;-74
2023/04/06 05:50:50;;;;;;;9.40;6.70;;;1.80;1.00;;;;;;5048963;28;20219;-73
2023/04/06 05:53:16;;;;;;;11.20;7.60;;;2.00;1.00;;;;;;5049239;28;20180;-74
2023/04/06 05:55:42;;;;;;;13.40;8.40;;;2.20;1.00;;;;;;5050564;28;20212;-75
2023/04/06 05:58:07;;;;;;;14.93;8.17;;;2.50;1.00;;;;;;5048921;28;20185;-74
2023/04/06 06:00:33;;;;;;;9.80;7.43;;;2.70;1.00;;;;;;5049281;28;20264;-74
2023/04/06 06:02:59;;;;;;;13.33;8.00;;;2.80;1.00;;;;;;5048718;28;20236;-74
2023/04/06 06:05:24;;;;;;;15.43;7.17;;;2.90;1.00;;;;;;5049098;28;20798;-74
2023/04/06 06:07:50;;;;;;;12.03;7.30;;;3.00;1.00;;;;;;5049022;28;20196;-74
2023/04/06 06:10:15;;;;;;;10.47;7.53;;;3.10;1.00;;;;;;5048616;28;20205;-74
2023/04/06 06:12:41;;;;;;;15.17;8.40;;;3.30;1.00;;;;;;5048794;28;20373;-75
2023/04/06 06:15:07;;;;;;;13.18;7.47;;;3.50;1.00;;;;;;5056492;28;20424;-74
2023/04/06 06:17:32;;;;;;;8.50;7.10;;;3.60;1.00;;;;;;5048915;28;20189;-73
2023/04/06 06:19:58;;;;;;;10.67;7.93;;;3.80;1.00;;;;;;5048328;28;20446;-73
2023/04/06 06:22:23;;;;;;;12.60;8.70;;;4.00;1.00;;;;;;5048865;28;20272;-74
2023/04/06 06:24:50;;;;;;;10.83;7.60;;;4.20;1.00;;;;;;5048840;28;20208;-74
2023/04/06 06:27:16;;;;;;;12.17;8.90;;;4.40;1.00;;;;;;5048687;28;20181;-74
2023/04/06 06:29:41;;;;;;;10.00;7.67;;;5.10;1.00;;;;;;5048695;28;20970;-73
2023/04/06 06:32:08;;;;;;;10.80;7.90;;;4.70;1.00;;;;;;5048212;28;20559;-74
2023/04/06 06:34:35;;;;;;;11.87;8.63;;;5.00;1.00;;;;;;5048635;28;20192;-73
2023/04/06 06:37:01;;;;;;;10.57;7.50;;;5.10;1.00;;;;;;5048482;28;20435;-74
2023/04/06 06:39:27;;;;;;;11.10;8.57;;;5.30;1.00;;;;;;5048654;28;20474;-74
2023/04/06 06:41:55;;;;;;;14.50;9.00;;;5.70;1.00;;;;;;5048340;28;20455;-74
2023/04/06 06:44:21;;;;;;;11.87;8.90;;;6.80;1.00;;;;;;5042850;28;20181;-74
2023/04/06 06:46:47;;;;;;;16.53;9.10;;;6.80;1.00;;;;;;5056554;28;20427;-75
2023/04/06 06:49:14;;;;;;;10.87;8.40;;;7.50;1.00;;;;;;5048190;28;21062;-74
2023/04/06 06:51:39;;;;;;;14.07;9.30;;;7.90;1.00;;;;;;5048373;28;20208;-75
2023/04/06 06:54:05;;;;;;;14.53;8.67;;;8.60;1.00;;;;;;5048391;28;20455;-74
2023/04/06 06:56:31;;;;;;;13.90;9.53;;;9.00;1.00;;;;;;5048392;28;20548;-73
2023/04/06 06:58:56;;;;;;;15.67;9.80;;;9.00;1.00;;;;;;5048253;28;20181;-73
2023/04/06 07:01:22;;;;;;;11.13;9.53;;;8.60;1.00;;;;;;5049261;28;20257;-73
2023/04/06 07:03:47;;;;;;;13.10;8.80;;;8.20;1.00;;;;;;5053928;28;20598;-73
2023/04/06 07:06:13;;;;;;;14.57;9.90;;;8.00;1.00;;;;;;5051950;28;20201;-73
2023/04/06 07:08:39;;;;;;;10.47;8.63;;;8.10;1.00;;;;;;5052295;28;20189;-73
2023/04/06 07:11:04;;;;;;;12.50;9.17;;;8.50;1.00;;;;;;5049600;28;20591;-73
2023/04/06 07:13:30;;;;;;;12.73;9.60;;;8.80;1.00;;;;;;5056884;28;20187;-73
2023/04/06 07:15:55;;;;;;;14.73;9.37;;;8.80;1.00;;;;;;5061275;28;20204;-73
2023/04/06 07:18:22;;;;;;;13.73;9.80;;;8.70;1.00;;;;;;5051783;28;20185;-73
2023/04/06 07:20:48;;;;;;;13.53;9.33;;;8.50;1.00;;;;;;5052045;28;20223;-73
2023/04/06 07:23:14;;;;;;;13.87;9.70;;;8.40;1.00;;;;;;5052052;28;20435;-73
2023/04/06 07:25:39;;;;;;;15.50;9.50;;;8.40;1.00;;;;;;5052039;28;20308;-73
2023/04/06 07:28:05;;;;;;;13.80;9.27;;;10.60;1.00;;;;;;5051590;28;20280;-72
2023/04/06 07:30:31;;;;;;;14.77;10.53;;;9.20;1.00;;;;;;5051722;28;20211;-73
2023/04/06 07:32:56;;;;;;;13.80;9.70;;;10.20;1.00;;;;;;5051889;28;20655;-73
2023/04/06 07:53:30;;;;;;;11.90;9.83;;;14.40;1.00;;;;;;5221833;22;20604;-75
2023/04/06 07:55:56;;;;;;;12.50;10.80;;;15.00;1.00;;;;;;5002413;28;20587;-74
2023/04/06 08:03:34;;;;;;;13.80;11.30;;;14.90;1.00;;;;;;5064614;22;20500;-74
2023/04/06 08:06:00;;;;;;;16.27;11.50;;;15.30;1.00;;;;;;5021337;28;20445;-72
2023/04/06 08:08:25;;;;;;;14.40;11.90;;;15.70;1.00;;;;;;5011354;28;20427;-73
2023/04/06 08:10:51;;;;;;;17.10;12.00;;;16.10;1.00;;;;;;5009450;28;20206;-70
2023/04/06 08:28:47;;;;;;;15.97;12.03;;;17.30;1.00;;;;;;5065008;22;20495;-74
2023/04/06 08:31:13;;;;;;;19.30;13.17;;;17.40;1.00;;;;;;5031547;28;20429;-73
2023/04/06 08:44:02;;;;;;;13.80;12.30;;;18.90;1.00;;;;;;4971970;28;20477;-73
2023/04/06 08:46:30;;;;;;;14.50;12.20;;;18.70;1.00;;;;;;4965201;28;20439;-73
2023/04/06 08:49:00;;;;;;;14.70;11.93;;;19.00;1.00;;;;;;4955985;28;20446;-73
2023/04/06 08:51:28;;;;;;;15.33;12.30;;;19.70;1.00;;;;;;4971451;28;20434;-73
2023/04/06 09:01:43;;;;;;;15.53;12.17;;;21.40;1.00;;;;;;6129090;22;20388;-73
2023/04/06 09:04:11;;;;;;;14.87;11.60;;;21.40;1.00;;;;;;5013345;28;20484;-74
2023/04/06 09:11:52;;;;;;;18.43;11.83;;;21.60;1.00;;;;;;6013060;22;20411;-75
2023/04/06 09:14:40;;;;;;;16.30;12.63;;;21.70;1.00;;;;;;5029473;28;20428;-74
2023/04/06 09:22:17;;;;;;;12.57;10.50;;;23.80;1.00;;;;;;5861884;22;20638;-74
2023/04/06 09:24:51;;;;;;;11.80;9.70;;;24.00;1.00;;;;;;5035203;28;20756;-73
2023/04/06 09:27:17;;;;;;;14.10;10.90;;;24.70;1.00;;;;;;5013492;28;20264;-70
2023/04/06 09:29:44;;;;;;;14.87;11.20;;;25.00;1.00;;;;;;5007640;28;20216;-72
2023/04/06 09:32:11;;;;;;;12.53;11.07;;;24.80;1.00;;;;;;5008814;28;20212;-71
2023/04/06 09:34:38;;;;;;;14.43;10.27;;;25.90;1.00;;;;;;5006172;28;20186;-71
2023/04/06 09:37:18;;;;;;;13.10;10.07;;;26.10;1.00;;;;;;5003620;28;20441;-72
2023/04/06 09:39:44;;;;;;;12.47;10.10;;;26.00;1.00;;;;;;5014879;28;20259;-70
2023/04/06 09:44:44;;;;;;;12.83;10.43;;;26.20;1.00;;;;;;5486113;22;1061274;-72
2023/04/06 09:47:10;;;;;;;10.30;9.20;;;26.30;1.00;;;;;;5016171;28;20317;-71
2023/04/06 09:54:56;;;;;;;14.90;9.77;;;27.00;1.00;;;;;;5054965;22;20236;-71
2023/04/06 09:57:25;;;;;;;11.63;9.27;;;26.90;1.00;;;;;;5201005;22;20278;-70
2023/04/06 09:59:54;;;;;;;14.23;9.90;;;27.50;1.00;;;;;;5195652;22;20236;-68
2023/04/06 10:02:46;;;;;;;13.15;9.50;;;27.90;1.00;;;;;;5112428;22;20229;-68
2023/04/06 10:05:28;;;;;;;14.80;9.05;;;27.70;1.00;;;;;;5240570;22;20200;-71
2023/04/06 10:07:57;;;;;;;14.05;9.32;;;28.10;1.00;;;;;;5199821;22;20221;-71
2023/04/06 10:10:22;;;;;;;10.77;9.00;;;28.10;1.00;;;;;;5030032;28;20274;-71
2023/04/06 10:12:49;;;;;;;10.93;8.68;;;28.50;1.00;;;;;;5030746;28;20181;-70
2023/04/06 10:15:15;;;;;;;11.00;8.50;;;29.10;1.00;;;;;;5272836;22;20232;-71
2023/04/06 10:17:41;;;;;;;10.40;8.02;;;29.60;1.00;;;;;;5205845;22;20233;-67
2023/04/06 10:23:15;;;;;;;12.77;8.77;;;29.70;1.00;;;;;;5179786;22;20312;-71
2023/04/06 10:25:56;;;;;;;13.77;9.48;;;29.10;1.00;;;;;;5199400;22;20199;-72
2023/04/06 10:31:00;;;;;;;11.25;9.95;;;28.30;1.00;;;;;;5322885;22;20242;-72
2023/04/06 10:33:27;;;;;;;11.40;9.05;;;28.40;1.00;;;;;;5059860;22;20233;-73
2023/04/06 10:35:53;;;;;;;10.18;9.07;;;28.50;1.00;;;;;;5000574;28;20206;-74
2023/04/06 10:38:24;;;;;;;10.40;9.07;;;29.00;1.00;;;;;;5054566;22;20320;-73
2023/04/06 10:40:49;;;;;;;15.55;10.45;;;28.60;1.00;;;;;;5221574;22;20208;-72
2023/04/06 10:43:20;;;;;;;13.15;9.40;;;28.50;1.00;;;;;;5160594;22;20232;-73
2023/04/06 10:45:59;;;;;;;10.25;8.02;;;27.90;1.00;;;;;;5232503;22;20316;-73
2023/04/06 11:11:18;;;;;;;22.70;10.97;;;26.10;1.00;;;;;;5546958;22;20210;-73
2023/04/06 11:18:51;;;;;;;10.60;8.47;;;28.10;1.00;;;;;;5262649;22;20708;-72
2023/04/06 11:21:17;;;;;;;10.53;7.53;;;27.70;1.00;;;;;;5027361;28;20201;-73
2023/04/06 11:28:54;;;;;;;10.83;8.60;;;27.50;1.00;;;;;;5062630;22;20800;-72
2023/04/06 11:31:26;;;;;;;10.37;8.30;;;27.90;1.00;;;;;;5061425;22;20193;-72
2023/04/06 11:33:58;;;;;;;13.77;10.07;;;28.20;1.00;;;;;;5752344;22;20225;-73
2023/04/06 11:39:00;;;;;;;13.60;10.43;;;;;;;;;;5404111;22;20460;-72
2023/04/06 11:51:55;;;;;;;11.47;9.20;;;26.20;1.00;;;;;;5692662;22;20646;-76
2023/04/06 11:54:33;;;;;;;13.93;10.77;;;26.70;1.00;;;;;;5031751;28;20709;-74
2023/04/06 11:57:00;;;;;;;12.47;10.40;;;28.10;1.00;;;;;;5013162;28;20205;-74
2023/04/06 11:59:27;;;;;;;11.23;9.80;;;28.60;1.00;;;;;;5011223;28;20186;-74
2023/04/06 12:09:39;;;;;;;12.00;10.38;;;29.30;1.00;;;;;;5454921;22;20220;-74
2023/04/06 12:25:03;;;;;;;18.63;10.93;;;26.40;1.00;;;;;;6057761;22;20990;-74
2023/04/06 12:43:28;;;;;;;9.77;8.68;;;29.80;1.00;;;;;;5987120;22;20386;-74
2023/04/06 12:45:53;;;;;;;10.70;8.88;;;27.90;1.00;;;;;;5025484;28;20296;-73
2023/04/06 12:56:14;;;;;;;10.63;8.75;;;28.80;1.00;;;;;;5824068;22;20321;-76
2023/04/06 12:58:43;;;;;;;9.65;8.20;;;29.20;1.00;;;;;;5029140;28;20267;-76
2023/04/06 13:01:08;;;;;;;9.98;8.73;;;29.50;1.00;;;;;;5030328;28;20212;-75
2023/04/06 13:08:47;;;;;;;13.38;10.07;;;27.90;1.00;;;;;;5903129;22;20248;-75
2023/04/06 13:11:12;;;;;;;12.77;9.77;;;27.50;1.00;;;;;;5021876;28;20241;-73
2023/04/06 13:13:38;;;;;;;11.30;9.10;;;26.30;1.00;;;;;;5027386;28;20209;-74
2023/04/06 13:16:08;;;;;;;12.47;10.10;;;26.00;1.00;;;;;;5026205;28;20197;-72
2023/04/06 13:21:13;;;;;;;24.80;12.00;;;26.20;1.00;;;;;;5496266;22;20206;-70
2023/04/06 13:23:40;;;;;;;10.97;8.67;;;26.30;1.00;;;;;;5043202;22;20229;-71
2023/04/06 13:28:50;;;;;;;17.83;10.23;;;25.70;1.00;;;;;;5125954;22;20664;-71
2023/04/06 13:33:51;;;;;;;13.57;10.47;;;;;;;;;;5046109;22;20221;-70
2023/04/06 13:38:49;;;;;;;11.20;8.90;;;26.30;1.00;;;;;;5169488;22;20240;-72
2023/04/06 13:41:20;;;;;;;13.90;10.57;;;25.50;1.00;;;;;;5049806;22;20696;-71
2023/04/06 13:43:46;;;;;;;11.40;9.03;;;26.30;1.00;;;;;;5132203;23;20248;-72
2023/04/06 13:46:11;;;;;;;12.83;9.10;;;26.40;1.00;;;;;;5011331;28;20217;-72
2023/04/06 13:48:37;;;;;;;13.50;9.60;;;25.80;1.00;;;;;;5010255;28;20224;-71
2023/04/06 14:01:17;;;;;;;12.23;9.30;;;23.30;1.00;;;;;;4986544;28;20478;-72
2023/04/06 14:06:19;;;;;;;12.30;8.77;;;;;;;;;;5224895;22;20229;31
2023/04/06 14:08:45;;;;;;;12.07;9.20;;;21.80;1.00;;;;;;5091885;22;20849;-74
2023/04/06 14:11:14;;;;;;;14.20;10.00;;;20.90;1.00;;;;;;5223140;22;20595;-72
2023/04/06 14:13:40;;;;;;;12.57;9.10;;;20.50;1.00;;;;;;5030240;28;20447;-70
2023/04/06 14:16:06;;;;;;;12.47;8.43;;;20.40;1.00;;;;;;5054745;22;20500;-75
2023/04/06 14:29:05;;;;;;;12.50;9.00;;;18.80;1.00;;;;;;5150947;22;20491;-74
2023/04/06 14:31:31;;;;;;;12.37;9.40;;;18.90;1.00;;;;;;5192279;22;20480;-74
2023/04/06 14:36:37;;;;;;;17.70;10.60;;;;;;;;;;5711454;22;21426;31
2023/04/06 14:47:07;;;;;;;13.90;9.70;;;19.30;1.00;;;;;;5757321;22;20565;-73
2023/04/06 14:49:32;;;;;;;17.80;11.17;;;19.00;1.00;;;;;;5098729;22;20474;-73
2023/04/06 14:57:01;;;;;;;14.10;9.90;;;18.70;1.00;;;;;;5096117;22;20537;-73
2023/04/06 14:59:27;;;;;;;14.20;10.37;;;18.80;1.00;;;;;;5011088;28;20441;-72
2023/04/06 15:01:53;;;;;;;16.03;11.07;;;18.70;1.00;;;;;;5003105;28;20281;-71
2023/04/06 15:04:18;;;;;;;15.33;9.80;;;18.60;1.00;;;;;;5010537;28;20520;-71
2023/04/06 15:09:21;;;;;;;27.33;11.90;;;18.70;1.00;;;;;;5551831;22;20297;-74
2023/04/06 15:16:57;;;;;;;12.77;9.17;;;18.70;1.00;;;;;;5419512;22;20483;-73
2023/04/06 15:21:58;;;;;;;16.50;9.27;;;18.40;1.00;;;;;;5469557;22;21298;-74
2023/04/06 15:26:59;;;;;;;16.63;9.60;;;18.30;1.00;;;;;;5787445;22;20204;-73
2023/04/06 15:34:32;;;;;;;10.57;7.30;;;18.10;1.00;;;;;;5448914;22;20500;-73
2023/04/06 15:37:01;;;;;;;19.03;9.70;;;17.50;1.00;;;;;;5206241;22;20491;-73
2023/04/06 15:39:28;;;;;;;18.80;9.37;;;17.20;1.00;;;;;;5884842;22;21354;-74
2023/04/06 15:49:43;;;;;;;11.53;7.30;;;16.50;1.00;;;;;;5789065;22;20834;-72
2023/04/06 15:59:57;;;;;;;11.13;7.40;;;;;;;;;;5412005;22;20503;-72
2023/04/06 16:02:23;;;;;;;10.67;7.00;;;16.30;1.00;;;;;;5341653;22;20545;-73
2023/04/06 16:04:49;;;;;;;10.10;7.17;;;;;;;;;;5317846;22;20501;-73
2023/04/06 16:12:25;;;;;;;13.87;7.33;;;16.00;1.00;;;;;;5781069;22;20486;-73
2023/04/06 16:22:35;;;;;;;11.63;6.77;;;15.70;1.00;;;;;;5738155;22;21543;-74
2023/04/06 16:25:01;;;;;;;9.67;5.33;;;15.50;1.00;;;;;;5443090;22;20483;-75
2023/04/06 16:27:26;;;;;;;9.97;6.20;;;15.30;1.00;;;;;;5356700;22;20751;-73
2023/04/06 16:29:52;;;;;;;13.20;6.53;;;15.30;1.00;;;;;;5483479;22;20250;-74
2023/04/06 16:39:58;;;;;;;10.20;5.10;;;;;;;;;;5144260;22;20515;-75
2023/04/06 16:42:23;;;;;;;6.90;4.90;;;15.50;1.00;;;;;;5193150;22;20486;-74
2023/04/06 16:44:49;;;;;;;5.10;4.20;;;;;;;;;;5011501;28;20453;-74
2023/04/06 16:47:16;;;;;;;8.37;6.33;;;15.40;1.00;;;;;;5365049;22;20616;-72
2023/04/06 16:49:42;;;;;;;7.27;5.13;;;15.30;1.00;;;;;;5136162;22;20489;-72
2023/04/06 16:59:55;;;;;;;7.80;3.90;;;15.10;1.00;;;;;;6077684;22;20390;-73
2023/04/06 17:04:48;;;;;;;8.43;3.10;;;14.90;1.00;;;;;;5356286;22;20499;-74
2023/04/06 17:09:49;;;;;;;4.50;3.43;;;14.70;1.00;;;;;;5961489;22;20232;-74
2023/04/06 17:14:51;;;;;;;4.07;3.10;;;;;;;;;;5146758;22;20711;-73
2023/04/06 17:17:17;;;;;;;5.30;3.30;;;14.40;1.00;;;;;;5169151;22;20496;-73
2023/04/06 17:19:43;;;;;;;4.00;2.80;;;14.20;1.00;;;;;;5045492;22;1098934;-73
2023/04/06 17:22:10;;;;;;;6.10;2.77;;;13.90;1.00;;;;;;5077890;22;20299;-73
2023/04/06 17:24:35;;;;;;;4.33;3.13;;;13.90;1.00;;;;;;4995071;28;20206;-76
2023/04/06 17:27:01;;;;;;;6.20;4.17;;;;;;;;;;5880421;22;21247;-68
2023/04/06 17:32:02;;;;;;;4.40;2.97;;;13.70;1.00;;;;;;5867747;22;20549;-75
2023/04/06 17:34:29;;;;;;;7.60;3.30;;;13.50;1.00;;;;;;5747976;22;21697;-74
2023/04/06 17:47:16;;;;;;;9.93;6.80;;;13.30;1.00;;;;;;5881103;22;20467;-72
2023/04/06 17:49:42;;;;;;;16.00;6.80;;;;;;;;;;5929224;22;20469;-72
2023/04/06 17:54:43;;;;;;;8.80;5.17;;;12.90;1.00;;;;;;5625045;22;20515;-74
2023/04/06 18:10:11;;;;;;;7.87;5.07;;;12.80;1.00;;;;;;5660235;22;20486;-75
2023/04/06 18:30:48;;;;;;;5.90;4.70;;;12.50;1.00;;;;;;5727544;22;20581;-74
2023/04/06 18:53:51;;;;;;;8.00;5.60;;;12.10;1.00;;;;;;5942972;22;20843;-73
2023/04/06 18:56:18;;;;;;;7.77;5.50;;;12.20;1.00;;;;;;5014835;28;20480;-73